sensor_id;sensor_type;location;lat;lon;timestamp;temperature;humidity
62998;DHT22;55949;52.590;7.330;2023-05-07T00:00:48;13.80;99.90
62998;DHT22;55949;52.590;7.330;2023-05-07T00:01:48;13.70;99.90
62998;DHT22;55949;52.590;7.330;2023-05-07T00:02:49;13.70;99.90
62998;DHT22;55949;52.590;7.330;2023-05-07T00:03:50;13.70;99.90
62998;DHT22;55949;52.590;7.330;2023-05-07T00:04:51;13.60;99.90
62998;DHT22;55949;52.590;7.330;2023-05-07T00:05:52;13.60;99.90
62998;DHT22;55949;52.590;7.330;2023-05-07T00:06:53;13.60;99.90
62998;DHT22;55949;52.590;7.330;2023-05-07T00:07:54;13.60;99.90
62998;DHT22;55949;52.590;7.330;2023-05-07T00:08:56;13.50;99.90
62998;DHT22;55949;52.590;7.330;2023-05-07T00:09:57;13.50;99.90
62998;DHT22;55949;52.590;7.330;2023-05-07T00:10:58;13.50;99.90
62998;DHT22;55949;52.590;7.330;2023-05-07T00:11:58;13.50;99.90
62998;DHT22;55949;52.590;7.330;2023-05-07T00:13:00;13.40;99.90
62998;DHT22;55949;52.590;7.330;2023-05-07T00:14:00;13.40;99.90
62998;DHT22;55949;52.590;7.330;2023-05-07T00:15:05;13.30;99.90
62998;DHT22;55949;52.590;7.330;2023-05-07T00:16:06;13.30;99.90
62998;DHT22;55949;52.590;7.330;2023-05-07T00:17:07;13.30;99.90
62998;DHT22;55949;52.590;7.330;2023-05-07T00:18:07;13.30;99.90
62998;DHT22;55949;52.590;7.330;2023-05-07T00:19:08;13.30;99.90
62998;DHT22;55949;52.590;7.330;2023-05-07T00:20:09;13.20;99.90
62998;DHT22;55949;52.590;7.330;2023-05-07T00:21:10;13.30;99.90
62998;DHT22;55949;52.590;7.330;2023-05-07T00:22:11;13.20;99.90
62998;DHT22;55949;52.590;7.330;2023-05-07T00:23:12;13.20;99.90
62998;DHT22;55949;52.590;7.330;2023-05-07T00:24:13;13.20;99.90
62998;DHT22;55949;52.590;7.330;2023-05-07T00:25:13;13.20;99.90
62998;DHT22;55949;52.590;7.330;2023-05-07T00:26:14;13.20;99.90
62998;DHT22;55949;52.590;7.330;2023-05-07T00:27:16;13.20;99.90
62998;DHT22;55949;52.590;7.330;2023-05-07T00:28:16;13.20;99.90
62998;DHT22;55949;52.590;7.330;2023-05-07T00:29:17;13.10;99.90
62998;DHT22;55949;52.590;7.330;2023-05-07T00:30:18;13.10;99.90
62998;DHT22;55949;52.590;7.330;2023-05-07T00:31:19;13.10;99.90
62998;DHT22;55949;52.590;7.330;2023-05-07T00:32:19;13.10;99.90
62998;DHT22;55949;52.590;7.330;2023-05-07T00:33:20;13.00;99.90
62998;DHT22;55949;52.590;7.330;2023-05-07T00:34:21;13.00;99.90
62998;DHT22;55949;52.590;7.330;2023-05-07T00:35:22;13.00;99.90
62998;DHT22;55949;52.590;7.330;2023-05-07T00:36:23;13.00;99.90
62998;DHT22;55949;52.590;7.330;2023-05-07T00:37:24;13.00;99.90
62998;DHT22;55949;52.590;7.330;2023-05-07T00:38:25;13.00;99.90
62998;DHT22;55949;52.590;7.330;2023-05-07T00:39:26;13.00;99.90
62998;DHT22;55949;52.590;7.330;2023-05-07T00:40:27;13.00;99.90
62998;DHT22;55949;52.590;7.330;2023-05-07T00:41:27;13.10;99.90
62998;DHT22;55949;52.590;7.330;2023-05-07T00:42:28;13.00;99.90
62998;DHT22;55949;52.590;7.330;2023-05-07T00:43:29;13.10;99.90
62998;DHT22;55949;52.590;7.330;2023-05-07T00:44:30;13.10;99.90
62998;DHT22;55949;52.590;7.330;2023-05-07T00:45:30;13.10;99.90
62998;DHT22;55949;52.590;7.330;2023-05-07T00:46:32;13.00;99.90
62998;DHT22;55949;52.590;7.330;2023-05-07T00:47:34;13.10;99.90
62998;DHT22;55949;52.590;7.330;2023-05-07T00:48:34;13.10;99.90
62998;DHT22;55949;52.590;7.330;2023-05-07T00:49:41;13.10;99.90
62998;DHT22;55949;52.590;7.330;2023-05-07T00:50:42;13.10;99.90
62998;DHT22;55949;52.590;7.330;2023-05-07T00:51:43;13.10;99.90
62998;DHT22;55949;52.590;7.330;2023-05-07T00:52:44;13.00;99.90
62998;DHT22;55949;52.590;7.330;2023-05-07T00:53:45;12.90;99.90
62998;DHT22;55949;52.590;7.330;2023-05-07T00:54:46;12.90;99.90
62998;DHT22;55949;52.590;7.330;2023-05-07T00:55:48;12.90;99.90
62998;DHT22;55949;52.590;7.330;2023-05-07T00:56:49;12.90;99.90
62998;DHT22;55949;52.590;7.330;2023-05-07T00:57:50;12.90;99.90
62998;DHT22;55949;52.590;7.330;2023-05-07T00:58:51;12.90;99.90
62998;DHT22;55949;52.590;7.330;2023-05-07T00:59:52;12.90;99.90
62998;DHT22;55949;52.590;7.330;2023-05-07T01:00:53;12.90;99.90
62998;DHT22;55949;52.590;7.330;2023-05-07T01:01:54;12.80;99.90
62998;DHT22;55949;52.590;7.330;2023-05-07T01:02:54;12.80;99.90
62998;DHT22;55949;52.590;7.330;2023-05-07T01:03:55;12.90;99.90
62998;DHT22;55949;52.590;7.330;2023-05-07T01:04:56;12.90;99.90
62998;DHT22;55949;52.590;7.330;2023-05-07T01:05:59;12.90;99.90
62998;DHT22;55949;52.590;7.330;2023-05-07T01:07:01;12.90;99.90
62998;DHT22;55949;52.590;7.330;2023-05-07T01:08:03;12.90;99.90
62998;DHT22;55949;52.590;7.330;2023-05-07T01:09:05;12.80;99.90
62998;DHT22;55949;52.590;7.330;2023-05-07T01:10:06;12.90;99.90
62998;DHT22;55949;52.590;7.330;2023-05-07T01:11:08;12.90;99.90
62998;DHT22;55949;52.590;7.330;2023-05-07T01:12:09;12.90;99.90
62998;DHT22;55949;52.590;7.330;2023-05-07T01:13:11;12.90;99.90
62998;DHT22;55949;52.590;7.330;2023-05-07T01:14:12;12.90;99.90
62998;DHT22;55949;52.590;7.330;2023-05-07T01:15:14;12.90;99.90
62998;DHT22;55949;52.590;7.330;2023-05-07T01:16:15;12.80;99.90
62998;DHT22;55949;52.590;7.330;2023-05-07T01:17:16;12.80;99.90
62998;DHT22;55949;52.590;7.330;2023-05-07T01:18:17;12.80;99.90
62998;DHT22;55949;52.590;7.330;2023-05-07T01:19:19;12.70;99.90
62998;DHT22;55949;52.590;7.330;2023-05-07T01:20:20;12.70;99.90
62998;DHT22;55949;52.590;7.330;2023-05-07T01:21:25;12.70;99.90
62998;DHT22;55949;52.590;7.330;2023-05-07T01:23:33;12.60;99.90
62998;DHT22;55949;52.590;7.330;2023-05-07T01:24:37;12.70;99.90
62998;DHT22;55949;52.590;7.330;2023-05-07T01:25:37;12.60;99.90
62998;DHT22;55949;52.590;7.330;2023-05-07T01:26:39;12.60;99.90
62998;DHT22;55949;52.590;7.330;2023-05-07T01:27:40;12.60;99.90
62998;DHT22;55949;52.590;7.330;2023-05-07T01:28:41;12.60;99.90
62998;DHT22;55949;52.590;7.330;2023-05-07T01:29:42;12.60;99.90
62998;DHT22;55949;52.590;7.330;2023-05-07T01:30:46;12.60;99.90
62998;DHT22;55949;52.590;7.330;2023-05-07T01:31:50;12.60;99.90
62998;DHT22;55949;52.590;7.330;2023-05-07T01:33:07;12.60;99.90
62998;DHT22;55949;52.590;7.330;2023-05-07T01:34:10;12.60;99.90
62998;DHT22;55949;52.590;7.330;2023-05-07T01:35:16;12.60;99.90
62998;DHT22;55949;52.590;7.330;2023-05-07T01:36:20;12.60;99.90
62998;DHT22;55949;52.590;7.330;2023-05-07T01:37:23;12.50;99.90
62998;DHT22;55949;52.590;7.330;2023-05-07T01:38:25;12.40;99.90
62998;DHT22;55949;52.590;7.330;2023-05-07T01:39:29;12.40;99.90
62998;DHT22;55949;52.590;7.330;2023-05-07T01:40:30;12.50;99.90
62998;DHT22;55949;52.590;7.330;2023-05-07T01:41:31;12.40;99.90
62998;DHT22;55949;52.590;7.330;2023-05-07T01:42:32;12.40;99.90
62998;DHT22;55949;52.590;7.330;2023-05-07T01:43:33;12.40;99.90
62998;DHT22;55949;52.590;7.330;2023-05-07T01:44:34;12.40;99.90
62998;DHT22;55949;52.590;7.330;2023-05-07T01:45:35;12.40;99.90
62998;DHT22;55949;52.590;7.330;2023-05-07T01:46:36;12.40;99.90
62998;DHT22;55949;52.590;7.330;2023-05-07T01:47:37;12.40;99.90
62998;DHT22;55949;52.590;7.330;2023-05-07T01:48:39;12.40;99.90
62998;DHT22;55949;52.590;7.330;2023-05-07T01:49:40;12.30;99.90
62998;DHT22;55949;52.590;7.330;2023-05-07T01:50:44;12.30;99.90
62998;DHT22;55949;52.590;7.330;2023-05-07T01:51:45;12.30;99.90
62998;DHT22;55949;52.590;7.330;2023-05-07T01:52:47;12.30;99.90
62998;DHT22;55949;52.590;7.330;2023-05-07T01:53:52;12.30;99.90
62998;DHT22;55949;52.590;7.330;2023-05-07T01:54:53;12.30;99.90
62998;DHT22;55949;52.590;7.330;2023-05-07T01:55:54;12.20;99.90
62998;DHT22;55949;52.590;7.330;2023-05-07T01:56:56;12.20;99.90
62998;DHT22;55949;52.590;7.330;2023-05-07T01:57:57;12.20;99.90
62998;DHT22;55949;52.590;7.330;2023-05-07T01:58:58;12.30;99.90
62998;DHT22;55949;52.590;7.330;2023-05-07T01:59:59;12.30;99.90
62998;DHT22;55949;52.590;7.330;2023-05-07T02:01:00;12.20;99.90
62998;DHT22;55949;52.590;7.330;2023-05-07T02:02:00;12.20;99.90
62998;DHT22;55949;52.590;7.330;2023-05-07T02:03:01;12.20;99.90
62998;DHT22;55949;52.590;7.330;2023-05-07T02:04:02;12.30;99.90
62998;DHT22;55949;52.590;7.330;2023-05-07T02:05:03;12.30;99.90
62998;DHT22;55949;52.590;7.330;2023-05-07T02:06:03;12.20;99.90
62998;DHT22;55949;52.590;7.330;2023-05-07T02:07:04;12.20;99.90
62998;DHT22;55949;52.590;7.330;2023-05-07T02:08:05;12.20;99.90
62998;DHT22;55949;52.590;7.330;2023-05-07T02:09:06;12.20;99.90
62998;DHT22;55949;52.590;7.330;2023-05-07T02:10:07;12.30;99.90
62998;DHT22;55949;52.590;7.330;2023-05-07T02:11:08;12.30;99.90
62998;DHT22;55949;52.590;7.330;2023-05-07T02:12:08;12.30;99.90
62998;DHT22;55949;52.590;7.330;2023-05-07T02:13:09;12.30;99.90
62998;DHT22;55949;52.590;7.330;2023-05-07T02:14:10;12.30;99.90
62998;DHT22;55949;52.590;7.330;2023-05-07T02:15:10;12.30;99.90
62998;DHT22;55949;52.590;7.330;2023-05-07T02:16:11;12.30;99.90
62998;DHT22;55949;52.590;7.330;2023-05-07T02:17:14;12.30;99.90
62998;DHT22;55949;52.590;7.330;2023-05-07T02:18:16;12.30;99.90
62998;DHT22;55949;52.590;7.330;2023-05-07T02:19:17;12.20;99.90
62998;DHT22;55949;52.590;7.330;2023-05-07T02:20:18;12.20;99.90
62998;DHT22;55949;52.590;7.330;2023-05-07T02:21:19;12.20;99.90
62998;DHT22;55949;52.590;7.330;2023-05-07T02:22:19;12.20;99.90
62998;DHT22;55949;52.590;7.330;2023-05-07T02:23:20;12.20;99.90
62998;DHT22;55949;52.590;7.330;2023-05-07T02:24:21;12.20;99.90
62998;DHT22;55949;52.590;7.330;2023-05-07T02:25:21;12.20;99.90
62998;DHT22;55949;52.590;7.330;2023-05-07T02:26:22;12.20;99.90
62998;DHT22;55949;52.590;7.330;2023-05-07T02:27:23;12.20;99.90
62998;DHT22;55949;52.590;7.330;2023-05-07T02:28:24;12.20;99.90
62998;DHT22;55949;52.590;7.330;2023-05-07T02:29:24;12.20;99.90
62998;DHT22;55949;52.590;7.330;2023-05-07T02:30:25;12.20;99.90
62998;DHT22;55949;52.590;7.330;2023-05-07T02:31:26;12.20;99.90
62998;DHT22;55949;52.590;7.330;2023-05-07T02:32:27;12.20;99.90
62998;DHT22;55949;52.590;7.330;2023-05-07T02:33:28;12.20;99.90
62998;DHT22;55949;52.590;7.330;2023-05-07T02:34:28;12.20;99.90
62998;DHT22;55949;52.590;7.330;2023-05-07T02:35:29;12.20;99.90
62998;DHT22;55949;52.590;7.330;2023-05-07T02:36:30;12.20;99.90
62998;DHT22;55949;52.590;7.330;2023-05-07T02:37:30;12.20;99.90
62998;DHT22;55949;52.590;7.330;2023-05-07T02:38:31;12.20;99.90
62998;DHT22;55949;52.590;7.330;2023-05-07T02:39:32;12.20;99.90
62998;DHT22;55949;52.590;7.330;2023-05-07T02:40:33;12.20;99.90
62998;DHT22;55949;52.590;7.330;2023-05-07T02:41:34;12.20;99.90
62998;DHT22;55949;52.590;7.330;2023-05-07T02:42:35;12.10;99.90
62998;DHT22;55949;52.590;7.330;2023-05-07T02:43:36;12.10;99.90
62998;DHT22;55949;52.590;7.330;2023-05-07T02:44:37;12.10;99.90
62998;DHT22;55949;52.590;7.330;2023-05-07T02:45:37;12.10;99.90
62998;DHT22;55949;52.590;7.330;2023-05-07T02:46:38;12.10;99.90
62998;DHT22;55949;52.590;7.330;2023-05-07T02:47:39;12.10;99.90
62998;DHT22;55949;52.590;7.330;2023-05-07T02:48:39;12.20;99.90
62998;DHT22;55949;52.590;7.330;2023-05-07T02:49:40;12.10;99.90
62998;DHT22;55949;52.590;7.330;2023-05-07T02:50:41;12.10;99.90
62998;DHT22;55949;52.590;7.330;2023-05-07T02:51:42;12.00;99.90
62998;DHT22;55949;52.590;7.330;2023-05-07T02:52:43;12.00;99.90
62998;DHT22;55949;52.590;7.330;2023-05-07T02:53:43;12.10;99.90
62998;DHT22;55949;52.590;7.330;2023-05-07T02:54:44;12.10;99.90
62998;DHT22;55949;52.590;7.330;2023-05-07T02:55:45;12.00;99.90
62998;DHT22;55949;52.590;7.330;2023-05-07T02:56:45;12.00;99.90
62998;DHT22;55949;52.590;7.330;2023-05-07T02:57:46;12.10;99.90
62998;DHT22;55949;52.590;7.330;2023-05-07T02:58:47;12.10;99.90
62998;DHT22;55949;52.590;7.330;2023-05-07T02:59:47;12.10;99.90
62998;DHT22;55949;52.590;7.330;2023-05-07T03:00:48;12.10;99.90
62998;DHT22;55949;52.590;7.330;2023-05-07T03:01:49;12.10;99.90
62998;DHT22;55949;52.590;7.330;2023-05-07T03:02:50;12.10;99.90
62998;DHT22;55949;52.590;7.330;2023-05-07T03:03:50;12.10;99.90
62998;DHT22;55949;52.590;7.330;2023-05-07T03:04:51;12.00;99.90
62998;DHT22;55949;52.590;7.330;2023-05-07T03:05:52;12.00;99.90
62998;DHT22;55949;52.590;7.330;2023-05-07T03:06:52;12.00;99.90
62998;DHT22;55949;52.590;7.330;2023-05-07T03:07:53;11.90;99.90
62998;DHT22;55949;52.590;7.330;2023-05-07T03:08:54;11.90;99.90
62998;DHT22;55949;52.590;7.330;2023-05-07T03:09:54;11.90;99.90
62998;DHT22;55949;52.590;7.330;2023-05-07T03:10:55;11.90;99.90
62998;DHT22;55949;52.590;7.330;2023-05-07T03:11:56;11.90;99.90
62998;DHT22;55949;52.590;7.330;2023-05-07T03:12:57;11.90;99.90
62998;DHT22;55949;52.590;7.330;2023-05-07T03:13:58;11.90;99.90
62998;DHT22;55949;52.590;7.330;2023-05-07T03:14:58;11.90;99.90
62998;DHT22;55949;52.590;7.330;2023-05-07T03:15:59;11.90;99.90
62998;DHT22;55949;52.590;7.330;2023-05-07T03:17:00;11.90;99.90
62998;DHT22;55949;52.590;7.330;2023-05-07T03:18:01;11.90;99.90
62998;DHT22;55949;52.590;7.330;2023-05-07T03:19:01;12.00;99.90
62998;DHT22;55949;52.590;7.330;2023-05-07T03:20:03;12.00;99.90
62998;DHT22;55949;52.590;7.330;2023-05-07T03:21:04;12.00;99.90
62998;DHT22;55949;52.590;7.330;2023-05-07T03:22:04;12.00;99.90
62998;DHT22;55949;52.590;7.330;2023-05-07T03:23:05;12.00;99.90
62998;DHT22;55949;52.590;7.330;2023-05-07T03:24:06;12.00;99.90
62998;DHT22;55949;52.590;7.330;2023-05-07T03:25:07;12.00;99.90
62998;DHT22;55949;52.590;7.330;2023-05-07T03:26:08;12.10;99.90
62998;DHT22;55949;52.590;7.330;2023-05-07T03:27:09;12.10;99.90
62998;DHT22;55949;52.590;7.330;2023-05-07T03:28:10;12.10;99.90
62998;DHT22;55949;52.590;7.330;2023-05-07T03:29:11;12.10;99.90
62998;DHT22;55949;52.590;7.330;2023-05-07T03:30:12;12.10;99.90
62998;DHT22;55949;52.590;7.330;2023-05-07T03:31:13;12.00;99.90
62998;DHT22;55949;52.590;7.330;2023-05-07T03:32:14;11.90;99.90
62998;DHT22;55949;52.590;7.330;2023-05-07T03:33:14;11.90;99.90
62998;DHT22;55949;52.590;7.330;2023-05-07T03:34:15;11.90;99.90
62998;DHT22;55949;52.590;7.330;2023-05-07T03:35:17;11.80;99.90
62998;DHT22;55949;52.590;7.330;2023-05-07T03:36:18;11.80;99.90
62998;DHT22;55949;52.590;7.330;2023-05-07T03:37:19;11.80;99.90
62998;DHT22;55949;52.590;7.330;2023-05-07T03:38:20;11.90;99.90
62998;DHT22;55949;52.590;7.330;2023-05-07T03:39:20;11.90;99.90
62998;DHT22;55949;52.590;7.330;2023-05-07T03:40:21;11.90;99.90
62998;DHT22;55949;52.590;7.330;2023-05-07T03:41:22;11.90;99.90
62998;DHT22;55949;52.590;7.330;2023-05-07T03:42:23;11.90;99.90
62998;DHT22;55949;52.590;7.330;2023-05-07T03:43:24;11.90;99.90
62998;DHT22;55949;52.590;7.330;2023-05-07T03:44:24;11.90;99.90
62998;DHT22;55949;52.590;7.330;2023-05-07T03:45:25;11.90;99.90
62998;DHT22;55949;52.590;7.330;2023-05-07T03:46:26;11.90;99.90
62998;DHT22;55949;52.590;7.330;2023-05-07T03:47:28;11.90;99.90
62998;DHT22;55949;52.590;7.330;2023-05-07T03:48:29;11.90;99.90
62998;DHT22;55949;52.590;7.330;2023-05-07T03:49:29;11.90;99.90
62998;DHT22;55949;52.590;7.330;2023-05-07T03:50:30;11.80;99.90
62998;DHT22;55949;52.590;7.330;2023-05-07T03:51:31;11.80;99.90
62998;DHT22;55949;52.590;7.330;2023-05-07T03:52:31;11.90;99.90
62998;DHT22;55949;52.590;7.330;2023-05-07T03:53:32;11.90;99.90
62998;DHT22;55949;52.590;7.330;2023-05-07T03:54:33;11.90;99.90
62998;DHT22;55949;52.590;7.330;2023-05-07T03:55:34;11.90;99.90
62998;DHT22;55949;52.590;7.330;2023-05-07T03:56:35;11.90;99.90
62998;DHT22;55949;52.590;7.330;2023-05-07T03:57:36;11.90;99.90
62998;DHT22;55949;52.590;7.330;2023-05-07T03:58:36;11.90;99.90
62998;DHT22;55949;52.590;7.330;2023-05-07T03:59:37;11.90;99.90
62998;DHT22;55949;52.590;7.330;2023-05-07T04:00:37;11.90;99.90
62998;DHT22;55949;52.590;7.330;2023-05-07T04:01:40;12.00;99.90
62998;DHT22;55949;52.590;7.330;2023-05-07T04:02:41;12.00;99.90
62998;DHT22;55949;52.590;7.330;2023-05-07T04:03:41;12.00;99.90
62998;DHT22;55949;52.590;7.330;2023-05-07T04:04:42;12.00;99.90
62998;DHT22;55949;52.590;7.330;2023-05-07T04:05:43;11.90;99.90
62998;DHT22;55949;52.590;7.330;2023-05-07T04:06:43;11.80;99.90
62998;DHT22;55949;52.590;7.330;2023-05-07T04:07:44;11.80;99.90
62998;DHT22;55949;52.590;7.330;2023-05-07T04:08:45;11.80;99.90
62998;DHT22;55949;52.590;7.330;2023-05-07T04:09:46;11.80;99.90
62998;DHT22;55949;52.590;7.330;2023-05-07T04:10:46;11.80;99.90
62998;DHT22;55949;52.590;7.330;2023-05-07T04:11:47;11.80;99.90
62998;DHT22;55949;52.590;7.330;2023-05-07T04:12:48;11.70;99.90
62998;DHT22;55949;52.590;7.330;2023-05-07T04:13:49;11.70;99.90
62998;DHT22;55949;52.590;7.330;2023-05-07T04:14:49;11.70;99.90
62998;DHT22;55949;52.590;7.330;2023-05-07T04:15:51;11.80;99.90
62998;DHT22;55949;52.590;7.330;2023-05-07T04:16:52;11.70;99.90
62998;DHT22;55949;52.590;7.330;2023-05-07T04:17:53;11.80;99.90
62998;DHT22;55949;52.590;7.330;2023-05-07T04:18:54;11.80;99.90
62998;DHT22;55949;52.590;7.330;2023-05-07T04:19:54;11.70;99.90
62998;DHT22;55949;52.590;7.330;2023-05-07T04:20:55;11.70;99.90
62998;DHT22;55949;52.590;7.330;2023-05-07T04:21:56;11.70;99.90
62998;DHT22;55949;52.590;7.330;2023-05-07T04:22:56;11.70;99.90
62998;DHT22;55949;52.590;7.330;2023-05-07T04:23:57;11.80;99.90
62998;DHT22;55949;52.590;7.330;2023-05-07T04:24:58;11.80;99.90
62998;DHT22;55949;52.590;7.330;2023-05-07T04:25:58;11.80;99.90
62998;DHT22;55949;52.590;7.330;2023-05-07T04:26:59;11.80;99.90
62998;DHT22;55949;52.590;7.330;2023-05-07T04:28:00;11.80;99.90
62998;DHT22;55949;52.590;7.330;2023-05-07T04:29:01;11.70;99.90
62998;DHT22;55949;52.590;7.330;2023-05-07T04:30:02;11.70;99.90
62998;DHT22;55949;52.590;7.330;2023-05-07T04:31:03;11.80;99.90
62998;DHT22;55949;52.590;7.330;2023-05-07T04:32:04;11.80;99.90
62998;DHT22;55949;52.590;7.330;2023-05-07T04:33:05;11.70;99.90
62998;DHT22;55949;52.590;7.330;2023-05-07T04:34:07;11.70;99.90
62998;DHT22;55949;52.590;7.330;2023-05-07T04:35:07;11.70;99.90
62998;DHT22;55949;52.590;7.330;2023-05-07T04:36:08;11.70;99.90
62998;DHT22;55949;52.590;7.330;2023-05-07T04:37:09;11.70;99.90
62998;DHT22;55949;52.590;7.330;2023-05-07T04:38:10;11.70;99.90
62998;DHT22;55949;52.590;7.330;2023-05-07T04:39:11;11.70;99.90
62998;DHT22;55949;52.590;7.330;2023-05-07T04:40:12;11.70;99.90
62998;DHT22;55949;52.590;7.330;2023-05-07T04:41:13;11.80;99.90
62998;DHT22;55949;52.590;7.330;2023-05-07T04:42:15;11.80;99.90
62998;DHT22;55949;52.590;7.330;2023-05-07T04:43:16;11.70;99.90
62998;DHT22;55949;52.590;7.330;2023-05-07T04:44:17;11.60;99.90
62998;DHT22;55949;52.590;7.330;2023-05-07T04:45:17;11.70;99.90
62998;DHT22;55949;52.590;7.330;2023-05-07T04:46:18;11.60;99.90
62998;DHT22;55949;52.590;7.330;2023-05-07T04:47:19;11.60;99.90
62998;DHT22;55949;52.590;7.330;2023-05-07T04:48:20;11.60;99.90
62998;DHT22;55949;52.590;7.330;2023-05-07T04:49:20;11.60;99.90
62998;DHT22;55949;52.590;7.330;2023-05-07T04:50:21;11.60;99.90
62998;DHT22;55949;52.590;7.330;2023-05-07T04:51:24;11.60;99.90
62998;DHT22;55949;52.590;7.330;2023-05-07T04:52:25;11.60;99.90
62998;DHT22;55949;52.590;7.330;2023-05-07T04:53:27;11.70;99.90
62998;DHT22;55949;52.590;7.330;2023-05-07T04:54:27;11.70;99.90
62998;DHT22;55949;52.590;7.330;2023-05-07T04:55:28;11.70;99.90
62998;DHT22;55949;52.590;7.330;2023-05-07T04:56:29;11.70;99.90
62998;DHT22;55949;52.590;7.330;2023-05-07T04:57:30;11.80;99.90
62998;DHT22;55949;52.590;7.330;2023-05-07T04:58:31;11.70;99.90
62998;DHT22;55949;52.590;7.330;2023-05-07T04:59:32;11.80;99.90
62998;DHT22;55949;52.590;7.330;2023-05-07T05:00:33;11.80;99.90
62998;DHT22;55949;52.590;7.330;2023-05-07T05:01:34;11.90;99.90
62998;DHT22;55949;52.590;7.330;2023-05-07T05:02:35;11.90;99.90
62998;DHT22;55949;52.590;7.330;2023-05-07T05:03:35;11.90;99.90
62998;DHT22;55949;52.590;7.330;2023-05-07T05:04:36;11.90;99.90
62998;DHT22;55949;52.590;7.330;2023-05-07T05:05:37;12.00;99.90
62998;DHT22;55949;52.590;7.330;2023-05-07T05:06:38;12.10;99.90
62998;DHT22;55949;52.590;7.330;2023-05-07T05:07:39;12.10;99.90
62998;DHT22;55949;52.590;7.330;2023-05-07T05:08:40;12.10;99.90
62998;DHT22;55949;52.590;7.330;2023-05-07T05:09:40;12.20;99.90
62998;DHT22;55949;52.590;7.330;2023-05-07T05:10:41;12.20;99.90
62998;DHT22;55949;52.590;7.330;2023-05-07T05:11:43;12.20;99.90
62998;DHT22;55949;52.590;7.330;2023-05-07T05:12:44;12.10;99.90
62998;DHT22;55949;52.590;7.330;2023-05-07T05:13:45;12.10;99.90
62998;DHT22;55949;52.590;7.330;2023-05-07T05:14:47;12.10;99.90
62998;DHT22;55949;52.590;7.330;2023-05-07T05:15:48;12.10;99.90
62998;DHT22;55949;52.590;7.330;2023-05-07T05:16:49;12.00;99.90
62998;DHT22;55949;52.590;7.330;2023-05-07T05:17:49;12.00;99.90
62998;DHT22;55949;52.590;7.330;2023-05-07T05:18:50;12.00;99.90
62998;DHT22;55949;52.590;7.330;2023-05-07T05:19:52;12.00;99.90
62998;DHT22;55949;52.590;7.330;2023-05-07T05:20:53;12.00;99.90
62998;DHT22;55949;52.590;7.330;2023-05-07T05:21:53;12.00;99.90
62998;DHT22;55949;52.590;7.330;2023-05-07T05:22:54;12.00;99.90
62998;DHT22;55949;52.590;7.330;2023-05-07T05:23:55;12.10;99.90
62998;DHT22;55949;52.590;7.330;2023-05-07T05:24:55;12.10;99.90
62998;DHT22;55949;52.590;7.330;2023-05-07T05:25:57;12.20;99.90
62998;DHT22;55949;52.590;7.330;2023-05-07T05:26:58;12.20;99.90
62998;DHT22;55949;52.590;7.330;2023-05-07T05:28:01;12.20;99.90
62998;DHT22;55949;52.590;7.330;2023-05-07T05:29:02;12.20;99.90
62998;DHT22;55949;52.590;7.330;2023-05-07T05:30:03;12.30;99.90
62998;DHT22;55949;52.590;7.330;2023-05-07T05:31:05;12.30;99.90
62998;DHT22;55949;52.590;7.330;2023-05-07T05:32:06;12.30;99.90
62998;DHT22;55949;52.590;7.330;2023-05-07T05:33:06;12.30;99.90
62998;DHT22;55949;52.590;7.330;2023-05-07T05:34:07;12.30;99.90
62998;DHT22;55949;52.590;7.330;2023-05-07T05:35:08;12.30;99.90
62998;DHT22;55949;52.590;7.330;2023-05-07T05:36:12;12.30;99.90
62998;DHT22;55949;52.590;7.330;2023-05-07T05:37:13;12.30;99.90
62998;DHT22;55949;52.590;7.330;2023-05-07T05:38:14;12.30;99.90
62998;DHT22;55949;52.590;7.330;2023-05-07T05:39:15;12.20;99.90
62998;DHT22;55949;52.590;7.330;2023-05-07T05:40:15;12.20;99.90
62998;DHT22;55949;52.590;7.330;2023-05-07T05:41:16;12.30;99.90
62998;DHT22;55949;52.590;7.330;2023-05-07T05:42:17;12.30;99.90
62998;DHT22;55949;52.590;7.330;2023-05-07T05:43:17;12.40;99.90
62998;DHT22;55949;52.590;7.330;2023-05-07T05:44:18;12.40;99.90
62998;DHT22;55949;52.590;7.330;2023-05-07T05:45:19;12.50;99.90
62998;DHT22;55949;52.590;7.330;2023-05-07T05:46:19;12.50;99.90
62998;DHT22;55949;52.590;7.330;2023-05-07T05:47:20;12.50;99.90
62998;DHT22;55949;52.590;7.330;2023-05-07T05:48:21;12.50;99.90
62998;DHT22;55949;52.590;7.330;2023-05-07T05:49:21;12.60;99.90
62998;DHT22;55949;52.590;7.330;2023-05-07T05:50:22;12.60;99.90
62998;DHT22;55949;52.590;7.330;2023-05-07T05:51:23;12.60;99.90
62998;DHT22;55949;52.590;7.330;2023-05-07T05:52:24;12.70;99.90
62998;DHT22;55949;52.590;7.330;2023-05-07T05:53:25;12.60;99.90
62998;DHT22;55949;52.590;7.330;2023-05-07T05:54:26;12.70;99.90
62998;DHT22;55949;52.590;7.330;2023-05-07T05:55:27;12.60;99.90
62998;DHT22;55949;52.590;7.330;2023-05-07T05:56:30;12.60;99.90
62998;DHT22;55949;52.590;7.330;2023-05-07T05:57:31;12.60;99.90
62998;DHT22;55949;52.590;7.330;2023-05-07T05:58:32;12.60;99.90
62998;DHT22;55949;52.590;7.330;2023-05-07T05:59:33;12.70;99.90
62998;DHT22;55949;52.590;7.330;2023-05-07T06:00:33;12.70;99.90
62998;DHT22;55949;52.590;7.330;2023-05-07T06:01:34;12.60;99.90
62998;DHT22;55949;52.590;7.330;2023-05-07T06:02:35;12.60;99.90
62998;DHT22;55949;52.590;7.330;2023-05-07T06:03:35;12.60;99.90
62998;DHT22;55949;52.590;7.330;2023-05-07T06:04:36;12.60;99.90
62998;DHT22;55949;52.590;7.330;2023-05-07T06:05:37;12.70;99.90
62998;DHT22;55949;52.590;7.330;2023-05-07T06:06:37;12.70;99.90
62998;DHT22;55949;52.590;7.330;2023-05-07T06:07:38;12.70;99.90
62998;DHT22;55949;52.590;7.330;2023-05-07T06:08:39;12.80;99.90
62998;DHT22;55949;52.590;7.330;2023-05-07T06:09:39;12.80;99.90
62998;DHT22;55949;52.590;7.330;2023-05-07T06:10:40;12.90;99.90
62998;DHT22;55949;52.590;7.330;2023-05-07T06:11:41;12.90;99.90
62998;DHT22;55949;52.590;7.330;2023-05-07T06:12:42;12.80;99.90
62998;DHT22;55949;52.590;7.330;2023-05-07T06:13:42;12.80;99.90
62998;DHT22;55949;52.590;7.330;2023-05-07T06:14:43;12.80;99.90
62998;DHT22;55949;52.590;7.330;2023-05-07T06:15:44;12.70;99.90
62998;DHT22;55949;52.590;7.330;2023-05-07T06:16:45;12.70;99.90
62998;DHT22;55949;52.590;7.330;2023-05-07T06:17:46;12.70;99.90
62998;DHT22;55949;52.590;7.330;2023-05-07T06:18:46;12.70;99.90
62998;DHT22;55949;52.590;7.330;2023-05-07T06:19:47;12.80;99.90
62998;DHT22;55949;52.590;7.330;2023-05-07T06:20:48;12.70;99.90
62998;DHT22;55949;52.590;7.330;2023-05-07T06:21:49;12.70;99.90
62998;DHT22;55949;52.590;7.330;2023-05-07T06:22:50;12.70;99.90
62998;DHT22;55949;52.590;7.330;2023-05-07T06:23:51;12.80;99.90
62998;DHT22;55949;52.590;7.330;2023-05-07T06:24:52;12.80;99.90
62998;DHT22;55949;52.590;7.330;2023-05-07T06:25:53;12.70;99.90
62998;DHT22;55949;52.590;7.330;2023-05-07T06:26:54;12.80;99.90